Elk Plain, Washington
Current Conditions -  °F | °C
As of 1:58 PM on Friday 28 Nov 2014 (Local Time) from KTCM Reporting Station
Moderate Rain Moderate Rain  
Wind Chill: 38°   Ceiling: 600
Heat Index: 43°   Visibility: 5mi
Dew Point: 43°   Wind: 8mph
Humidity: 99%   Direction: 30°NNE
Pressure: 29.46"   Gusts: NA
Location:  47.06°N, 122.4°W
Report Text: KTCM 282158Z AUTO 03007KT 5SM RA BR BKN006 OVC011 06/06 A2946 RMK AO2 BKN V OVC SLP981 P0016 T00600059 $
Loading
Personal Weather Stations






























Interactive Weather Map New forecast layout! Learn more

10-Day Weather Forecast

Advertisements
Track Severe Weather on mobile